Time;durP1;ratioP1;P1;durP2;ratioP2;P2;SDS_P1;SDS_P2;PMS_P1;PMS_P2;Temp;Humidity;BMP_temperature;BMP_pressure;BME280_temperature;BME280_humidity;BME280_pressure;Samples;Min_cycle;Max_cycle;Signal;HPM_P1;HPM_P2
2021/12/26 00:00:59;;;;;;;123.90;47.00;;;;;;;-8.57;72.09;100205.55;51430;1311;1019920;-63
2021/12/26 00:03:32;;;;;;;115.40;44.70;;;;;;;-8.57;71.97;100204.54;51539;1312;1016339;-63
2021/12/26 00:06:07;;;;;;;111.30;44.40;;;;;;;-8.58;71.82;100206.14;51369;1311;1016528;-63
2021/12/26 00:08:38;;;;;;;128.00;49.30;;;;;;;-8.58;71.93;100206.74;51430;1313;1015901;-69
2021/12/26 00:11:10;;;;;;;145.70;55.00;;;;;;;-8.60;72.06;100206.40;51315;1310;1016569;-63
2021/12/26 00:13:42;;;;;;;141.50;56.80;;;;;;;-8.62;71.74;100206.77;51385;1312;1016169;-63
2021/12/26 00:16:15;;;;;;;141.40;57.40;;;;;;;-8.64;71.80;100205.47;51322;1313;1017769;-63
2021/12/26 00:18:47;;;;;;;170.70;60.30;;;;;;;-8.66;71.86;100204.64;51476;1313;1016672;-63
2021/12/26 00:21:22;;;;;;;160.60;61.50;;;;;;;-8.68;71.74;100200.58;51525;1312;1018418;-63
2021/12/26 00:23:55;;;;;;;148.20;58.60;;;;;;;-8.68;71.87;100200.88;51460;1307;1017440;-63
2021/12/26 00:26:29;;;;;;;134.30;54.80;;;;;;;-8.68;71.83;100200.94;51519;1310;1016419;-63
2021/12/26 00:29:01;;;;;;;121.50;49.20;;;;;;;-8.71;71.77;100205.30;51416;1313;1016118;-63
2021/12/26 00:31:32;;;;;;;134.80;55.40;;;;;;;-8.73;71.71;100199.52;51409;1307;1016617;-63
2021/12/26 00:34:03;;;;;;;127.50;52.30;;;;;;;-8.77;71.46;100203.54;51489;1311;1016583;-63
2021/12/26 00:36:34;;;;;;;143.00;54.50;;;;;;;-8.83;71.28;100199.07;51318;1313;1016496;-63
2021/12/26 00:39:06;;;;;;;141.90;55.70;;;;;;;-8.88;71.56;100203.73;51372;1309;1016631;-63
2021/12/26 00:41:39;;;;;;;138.40;54.80;;;;;;;-8.89;71.70;100202.86;51396;1309;1016561;-63
2021/12/26 00:44:11;;;;;;;143.00;53.70;;;;;;;-8.90;71.60;100203.21;51299;1311;1019233;-63
2021/12/26 00:46:42;;;;;;;142.50;55.70;;;;;;;-8.92;71.56;100200.30;51395;1313;1016239;-63
2021/12/26 00:49:13;;;;;;;138.30;53.70;;;;;;;-8.95;71.65;100196.14;51397;1313;1020347;-63
2021/12/26 00:51:44;;;;;;;139.50;51.30;;;;;;;-8.98;71.49;100198.15;51353;1313;1016153;-63
2021/12/26 00:54:16;;;;;;;136.80;53.40;;;;;;;-8.98;71.71;100200.00;51415;1310;1016601;-64
2021/12/26 00:56:47;;;;;;;135.00;50.00;;;;;;;-9.02;71.54;100201.70;51307;1309;1016623;-63
2021/12/26 00:59:20;;;;;;;131.90;49.60;;;;;;;-9.05;71.63;100199.54;51401;1306;1015878;-63
2021/12/26 01:01:52;;;;;;;128.30;49.90;;;;;;;-9.04;71.74;100199.45;51332;1312;1016347;-63
2021/12/26 01:04:23;;;;;;;133.60;49.30;;;;;;;-9.05;71.77;100199.70;51366;1313;1016674;-63
2021/12/26 01:06:54;;;;;;;128.60;49.10;;;;;;;-9.07;71.68;100198.23;51419;1313;1015950;-63
2021/12/26 01:09:28;;;;;;;128.70;47.90;;;;;;;-9.08;71.82;100197.59;51327;1311;1016573;-63
2021/12/26 01:12:06;;;;;;;113.30;43.10;;;;;;;-9.10;71.51;100197.34;51388;1309;1015981;-63
2021/12/26 01:14:46;;;;;;;107.60;42.80;;;;;;;-9.16;71.18;100192.02;51349;1313;1019709;-63
2021/12/26 01:17:21;;;;;;;119.10;45.00;;;;;;;-9.24;71.30;100193.65;51349;1310;1016506;-63
2021/12/26 01:19:54;;;;;;;114.40;42.60;;;;;;;-9.26;71.47;100193.43;51377;1313;1016500;-63
2021/12/26 01:22:27;;;;;;;102.90;39.90;;;;;;;-9.30;71.62;100195.59;51439;1312;1017491;-63
2021/12/26 01:24:59;;;;;;;114.40;41.50;;;;;;;-9.35;71.53;100200.94;51514;1313;1016460;-63
2021/12/26 01:27:30;;;;;;;110.10;41.00;;;;;;;-9.41;71.59;100200.84;51375;1306;1016718;-63
2021/12/26 01:30:01;;;;;;;109.00;41.30;;;;;;;-9.40;71.76;100195.56;51385;1311;1015888;-64
2021/12/26 01:32:32;;;;;;;98.60;40.60;;;;;;;-9.37;71.89;100197.25;51446;1309;1018428;-64
2021/12/26 01:35:04;;;;;;;115.10;42.40;;;;;;;-9.37;71.86;100199.11;51559;1309;1015259;-64
2021/12/26 01:37:35;;;;;;;107.50;41.40;;;;;;;-9.36;71.96;100195.89;51484;1312;1020126;-64
2021/12/26 01:40:09;;;;;;;95.80;38.70;;;;;;;-9.35;72.04;100199.63;51357;1312;1016586;-63
2021/12/26 01:42:40;;;;;;;116.90;42.30;;;;;;;-9.34;71.87;100192.23;51393;1313;1016301;-64
2021/12/26 01:45:12;;;;;;;113.60;42.10;;;;;;;-9.35;71.82;100193.98;51350;1309;1016194;-64
2021/12/26 01:47:45;;;;;;;150.60;49.40;;;;;;;-9.36;71.89;100191.82;51383;1310;1016274;-64
2021/12/26 01:50:16;;;;;;;138.00;51.00;;;;;;;-9.35;71.86;100194.83;51372;1310;1016503;-64
2021/12/26 01:52:47;;;;;;;149.30;51.50;;;;;;;-9.36;71.99;100195.59;51472;1310;1016127;-64
2021/12/26 01:55:26;;;;;;;136.50;47.50;;;;;;;-9.36;71.91;100193.95;51419;1310;1016592;-63
2021/12/26 01:57:58;;;;;;;128.90;47.40;;;;;;;-9.37;71.97;100193.17;51432;1313;1018235;-64
2021/12/26 02:00:30;;;;;;;132.50;44.20;;;;;;;-9.37;72.11;100187.30;51325;1308;1017936;-64
2021/12/26 02:03:01;;;;;;;107.30;40.60;;;;;;;-9.37;72.16;100186.85;51306;1309;1016303;-64
2021/12/26 02:05:33;;;;;;;122.00;41.70;;;;;;;-9.37;72.08;100184.59;51397;1309;1016330;-64
2021/12/26 02:08:05;;;;;;;111.70;41.20;;;;;;;-9.39;71.94;100183.46;51406;1312;1016160;-63
2021/12/26 02:10:36;;;;;;;111.90;40.00;;;;;;;-9.42;71.77;100181.46;51404;1309;1016362;-64
2021/12/26 02:13:08;;;;;;;117.20;45.50;;;;;;;-9.44;71.66;100179.39;51367;1311;1016458;-64
2021/12/26 02:15:39;;;;;;;110.00;42.60;;;;;;;-9.46;71.52;100180.95;51396;1313;1016290;-64
2021/12/26 02:18:11;;;;;;;101.00;38.50;;;;;;;-9.50;71.46;100178.99;51481;1309;1016179;-64
2021/12/26 02:20:57;;;;;;;123.80;44.40;;;;;;;-9.55;71.69;100179.48;51370;1309;1015506;-64
2021/12/26 02:23:34;;;;;;;161.70;53.60;;;;;;;-9.57;71.41;100181.83;51330;1314;1017122;-64
2021/12/26 02:28:55;;;;;;;134.80;47.10;;;;;;;-9.62;71.78;100181.23;51416;1309;1016471;-64
2021/12/26 02:31:27;;;;;;;135.30;49.60;;;;;;;-9.67;71.78;100183.34;51362;1309;1016475;-64
2021/12/26 02:33:59;;;;;;;144.50;49.10;;;;;;;-9.71;71.57;100183.07;51391;1313;1016614;-64
2021/12/26 02:36:31;;;;;;;121.90;47.70;;;;;;;-9.74;71.91;100181.31;51454;1313;1016254;-64
2021/12/26 02:39:03;;;;;;;132.00;47.90;;;;;;;-9.73;71.93;100183.73;51385;1310;1018619;-63
2021/12/26 02:41:34;;;;;;;131.70;46.80;;;;;;;-9.72;71.89;100179.73;51346;1310;1018018;-64
2021/12/26 02:44:06;;;;;;;136.80;48.40;;;;;;;-9.73;71.82;100181.10;51361;1310;1016308;-64
2021/12/26 02:46:37;;;;;;;137.30;48.00;;;;;;;-9.74;71.83;100182.54;51385;1307;1016661;-64
2021/12/26 02:49:09;;;;;;;135.70;53.30;;;;;;;-9.73;71.94;100184.94;51332;1313;1019758;-63
2021/12/26 02:51:40;;;;;;;134.60;48.50;;;;;;;-9.73;71.81;100189.27;51428;1314;1016402;-64
2021/12/26 02:54:11;;;;;;;148.10;50.60;;;;;;;-9.75;71.72;100188.08;51327;1309;1016265;-64
2021/12/26 02:56:42;;;;;;;140.80;48.30;;;;;;;-9.74;71.98;100187.55;51383;1310;1016726;-63
2021/12/26 02:59:13;;;;;;;131.90;46.50;;;;;;;-9.73;72.10;100187.20;51372;1310;1020701;-64
2021/12/26 03:01:45;;;;;;;122.30;43.30;;;;;;;-9.73;72.06;100187.89;51354;1312;1016468;-64
2021/12/26 03:04:16;;;;;;;125.20;44.40;;;;;;;-9.74;71.84;100184.92;51408;1309;1017141;-64
2021/12/26 03:06:56;;;;;;;112.30;41.60;;;;;;;-9.76;71.70;100184.02;51364;1315;1019664;-64
2021/12/26 03:09:29;;;;;;;106.20;40.20;;;;;;;-9.80;71.42;100180.52;51323;1309;1020113;-63
2021/12/26 03:12:01;;;;;;;118.50;43.40;;;;;;;-9.84;71.45;100186.57;51331;1309;1016299;-64
2021/12/26 03:14:32;;;;;;;111.00;40.40;;;;;;;-9.85;71.56;100185.23;51471;1308;1015945;-64
2021/12/26 03:17:04;;;;;;;102.90;37.10;;;;;;;-9.85;71.77;100188.64;51364;1306;1016023;-64
2021/12/26 03:19:37;;;;;;;100.50;37.50;;;;;;;-9.85;71.75;100189.40;51325;1306;1016432;-64
2021/12/26 03:22:09;;;;;;;114.50;41.60;;;;;;;-9.85;71.86;100193.49;51405;1313;1016409;-64
2021/12/26 03:24:41;;;;;;;119.50;42.80;;;;;;;-9.85;71.99;100191.10;51385;1310;1016582;-64
2021/12/26 03:27:14;;;;;;;116.40;42.50;;;;;;;-9.85;72.04;100189.19;51449;1309;1016051;-64
2021/12/26 03:29:45;;;;;;;118.00;40.90;;;;;;;-9.84;71.83;100189.88;51399;1312;1016203;-64
2021/12/26 03:32:16;;;;;;;133.10;42.90;;;;;;;-9.84;72.01;100188.04;51404;1309;1016550;-64
2021/12/26 03:34:51;;;;;;;119.20;43.80;;;;;;;-9.83;72.04;100187.52;51350;1307;1016294;-64
2021/12/26 03:37:23;;;;;;;122.50;41.80;;;;;;;-9.84;71.84;100191.90;51384;1309;1016270;-64
2021/12/26 03:39:54;;;;;;;125.60;42.80;;;;;;;-9.86;71.54;100196.85;51377;1313;1016564;-64
2021/12/26 03:42:25;;;;;;;124.80;43.20;;;;;;;-9.88;71.64;100200.35;51429;1309;1016651;-64
2021/12/26 03:44:58;;;;;;;123.50;41.80;;;;;;;-9.92;71.34;100204.89;51363;1313;1016628;-64
2021/12/26 03:47:29;;;;;;;126.70;41.60;;;;;;;-9.97;71.45;100203.12;51474;1306;1016656;-64
2021/12/26 03:50:01;;;;;;;139.40;46.50;;;;;;;-10.03;71.28;100203.70;51347;1309;1018509;-63
2021/12/26 03:52:32;;;;;;;132.00;44.70;;;;;;;-10.09;71.39;100206.78;51358;1309;1016558;-63
2021/12/26 03:55:04;;;;;;;116.10;45.00;;;;;;;-10.13;71.40;100213.04;51384;1313;1016212;-64
2021/12/26 03:57:35;;;;;;;136.40;47.70;;;;;;;-10.14;71.53;100217.02;51504;1314;1016470;-64
2021/12/26 04:00:10;;;;;;;140.00;47.90;;;;;;;-10.16;71.25;100212.02;51317;1310;1016081;-64
2021/12/26 04:02:41;;;;;;;139.00;51.60;;;;;;;-10.23;71.27;100212.98;51461;1313;1016037;-64
2021/12/26 04:05:13;;;;;;;145.20;50.80;;;;;;;-10.26;71.48;100210.72;51540;1310;1016455;-64
2021/12/26 04:07:45;;;;;;;154.40;49.50;;;;;;;-10.24;71.74;100214.71;51356;1310;1016318;-64
2021/12/26 04:10:18;;;;;;;136.30;45.60;;;;;;;-10.22;71.83;100215.23;51354;1314;1016456;-64
2021/12/26 04:12:53;;;;;;;144.10;48.90;;;;;;;-10.21;71.87;100211.34;51390;1313;1018468;-64
2021/12/26 04:15:26;;;;;;;135.50;49.10;;;;;;;-10.19;71.98;100214.25;51534;1311;1016181;-64
2021/12/26 04:17:58;;;;;;;128.50;42.70;;;;;;;-10.18;71.94;100213.27;51535;1314;1015904;-64
2021/12/26 04:20:31;;;;;;;123.10;44.50;;;;;;;-10.18;71.69;100212.89;51451;1310;1016554;-64
2021/12/26 04:23:02;;;;;;;119.70;42.20;;;;;;;-10.20;71.55;100210.67;51409;1314;1016181;-64
2021/12/26 04:25:34;;;;;;;123.70;43.90;;;;;;;-10.22;71.44;100212.83;51457;1312;1020251;-63
2021/12/26 04:28:05;;;;;;;120.00;45.10;;;;;;;-10.24;71.49;100217.27;51508;1313;1016118;-63
2021/12/26 04:30:37;;;;;;;117.40;43.40;;;;;;;-10.23;71.77;100220.50;51406;1313;1016545;-64
2021/12/26 04:33:07;;;;;;;117.60;41.60;;;;;;;-10.22;71.99;100223.09;51382;1313;1016218;-64
2021/12/26 04:35:39;;;;;;;132.40;46.50;;;;;;;-10.21;71.98;100222.59;51478;1314;1018985;-64
2021/12/26 04:38:10;;;;;;;129.00;47.50;;;;;;;-10.21;71.66;100221.05;51334;1312;1016321;-64
2021/12/26 04:40:41;;;;;;;143.80;47.60;;;;;;;-10.25;71.64;100216.45;51395;1309;1016498;-63
2021/12/26 04:43:12;;;;;;;121.90;43.60;;;;;;;-10.28;71.55;100216.81;51421;1314;1016395;-63
2021/12/26 04:45:44;;;;;;;126.20;46.80;;;;;;;-10.31;71.74;100214.12;51390;1313;1020039;-64
2021/12/26 04:48:15;;;;;;;118.80;41.80;;;;;;;-10.30;71.91;100222.09;51340;1307;1016703;-63
2021/12/26 04:50:48;;;;;;;125.40;42.50;;;;;;;-10.30;71.81;100221.94;51333;1314;1019172;-63
2021/12/26 04:53:19;;;;;;;118.50;40.50;;;;;;;-10.30;71.43;100224.17;51441;1308;1016303;-64
2021/12/26 04:55:50;;;;;;;111.20;38.20;;;;;;;-10.31;71.52;100224.44;51368;1312;1016393;-64
2021/12/26 04:58:22;;;;;;;115.80;37.10;;;;;;;-10.32;71.53;100230.26;51418;1309;1016681;-64
2021/12/26 05:00:53;;;;;;;119.50;40.60;;;;;;;-10.33;71.42;100229.45;51333;1311;1017364;-65
2021/12/26 05:03:24;;;;;;;105.20;38.50;;;;;;;-10.35;71.51;100229.73;51354;1313;1016111;-64
2021/12/26 05:05:55;;;;;;;120.60;43.60;;;;;;;-10.37;71.28;100232.14;51144;1309;1016416;-64
2021/12/26 05:08:26;;;;;;;117.20;40.00;;;;;;;-10.41;71.28;100234.80;51363;1312;1016239;-64
2021/12/26 05:10:57;;;;;;;103.20;38.50;;;;;;;-10.42;71.40;100232.38;51397;1309;1016567;-64
2021/12/26 05:13:29;;;;;;;99.50;38.00;;;;;;;-10.41;71.60;100236.09;51367;1308;1016201;-64
2021/12/26 05:16:00;;;;;;;106.30;36.00;;;;;;;-10.41;71.50;100232.71;51421;1313;1016446;-64
2021/12/26 05:18:31;;;;;;;101.10;34.10;;;;;;;-10.39;71.61;100235.23;51545;1312;1016327;-64
2021/12/26 05:21:03;;;;;;;113.80;39.30;;;;;;;-10.39;71.53;100231.54;51370;1313;1016772;-63
2021/12/26 05:23:34;;;;;;;112.30;38.70;;;;;;;-10.38;71.85;100230.92;51420;1313;1016672;-64
2021/12/26 05:26:05;;;;;;;120.50;44.20;;;;;;;-10.37;71.95;100235.14;51504;1310;1018335;-64
2021/12/26 05:28:37;;;;;;;128.70;45.70;;;;;;;-10.35;71.62;100237.42;51473;1312;1016256;-64
2021/12/26 05:31:08;;;;;;;135.00;43.80;;;;;;;-10.36;71.55;100235.62;51437;1309;1016596;-64
2021/12/26 05:33:39;;;;;;;124.30;43.00;;;;;;;-10.38;71.07;100240.48;51379;1313;1016590;-63
2021/12/26 05:36:09;;;;;;;129.20;43.20;;;;;;;-10.45;71.08;100245.53;51354;1313;1020519;-63
2021/12/26 05:38:41;;;;;;;107.70;39.10;;;;;;;-10.46;71.54;100245.10;51421;1309;1016144;-64
2021/12/26 05:41:12;;;;;;;108.70;40.40;;;;;;;-10.48;71.23;100245.38;51520;1313;1015782;-64
2021/12/26 05:43:44;;;;;;;115.90;36.50;;;;;;;-10.52;71.03;100247.56;51364;1313;1016434;-64
2021/12/26 05:46:15;;;;;;;110.80;38.00;;;;;;;-10.55;71.29;100248.98;51340;1313;1016732;-64
2021/12/26 05:48:47;;;;;;;107.90;37.70;;;;;;;-10.54;71.59;100246.17;51411;1313;1016700;-63
2021/12/26 05:51:19;;;;;;;102.30;34.80;;;;;;;-10.52;71.49;100245.08;51395;1309;1016263;-63
2021/12/26 05:53:51;;;;;;;107.30;36.50;;;;;;;-10.49;71.67;100243.84;51320;1312;1018573;-64
2021/12/26 05:56:22;;;;;;;102.90;35.70;;;;;;;-10.49;71.63;100241.33;51407;1314;1016596;-64
2021/12/26 05:58:53;;;;;;;104.30;36.20;;;;;;;-10.49;71.09;100238.54;51342;1309;1018970;-64
2021/12/26 06:01:24;;;;;;;104.00;39.90;;;;;;;-10.51;71.35;100241.27;51379;1310;1016390;-64
2021/12/26 06:03:56;;;;;;;98.70;35.10;;;;;;;-10.52;71.22;100241.05;51346;1310;1015824;-64
2021/12/26 06:06:27;;;;;;;106.00;38.60;;;;;;;-10.52;71.07;100244.61;51372;1313;1016338;-64
2021/12/26 06:08:58;;;;;;;111.20;41.60;;;;;;;-10.53;71.30;100253.29;51379;1309;1016063;-63
2021/12/26 06:11:29;;;;;;;103.60;41.90;;;;;;;-10.59;70.93;100253.65;51381;1312;1016552;-64
2021/12/26 06:14:00;;;;;;;105.10;40.20;;;;;;;-10.65;71.18;100251.70;51378;1312;1016407;-63
2021/12/26 06:16:32;;;;;;;113.30;39.30;;;;;;;-10.63;71.65;100251.34;51511;1310;1016540;-63
2021/12/26 06:19:03;;;;;;;103.30;40.30;;;;;;;-10.62;71.68;100248.95;51576;1310;1016506;-63
2021/12/26 06:21:34;;;;;;;124.10;41.10;;;;;;;-10.60;71.82;100251.84;51342;1314;1016652;-63
2021/12/26 06:24:06;;;;;;;112.90;41.00;;;;;;;-10.58;71.85;100247.90;51430;1312;1018307;-63
2021/12/26 06:26:37;;;;;;;107.50;38.80;;;;;;;-10.57;71.48;100247.23;51549;1314;1016598;-63
2021/12/26 06:29:09;;;;;;;109.40;38.60;;;;;;;-10.59;71.23;100252.55;51412;1313;1016210;-63
2021/12/26 06:31:40;;;;;;;113.00;38.80;;;;;;;-10.62;71.23;100259.87;51367;1309;1016019;-64
2021/12/26 06:34:11;;;;;;;104.50;38.00;;;;;;;-10.64;70.90;100269.19;51394;1314;1016717;-64
2021/12/26 06:36:42;;;;;;;116.90;38.80;;;;;;;-10.73;70.93;100266.86;51382;1314;1016527;-63
2021/12/26 06:39:13;;;;;;;101.20;35.50;;;;;;;-10.77;70.99;100274.35;51401;1312;1016576;-63
2021/12/26 06:41:44;;;;;;;105.20;34.60;;;;;;;-10.81;70.87;100270.77;51353;1313;1017699;-63
2021/12/26 06:44:16;;;;;;;102.50;33.30;;;;;;;-10.82;71.06;100271.41;51387;1313;1016113;-63
2021/12/26 06:46:47;;;;;;;94.40;36.90;;;;;;;-10.83;71.06;100268.29;51310;1314;1016319;-63
2021/12/26 06:49:19;;;;;;;104.90;40.20;;;;;;;-10.86;71.01;100265.50;51395;1312;1016234;-63
2021/12/26 06:51:52;;;;;;;102.80;34.00;;;;;;;-10.87;71.26;100265.41;51399;1314;1019135;-63
2021/12/26 06:54:23;;;;;;;104.70;38.90;;;;;;;-10.86;71.28;100269.65;51350;1314;1016383;-63
2021/12/26 06:56:54;;;;;;;107.40;37.90;;;;;;;-10.88;71.24;100271.92;51433;1314;1016653;-63
2021/12/26 06:59:25;;;;;;;104.20;38.00;;;;;;;-10.89;71.33;100270.48;51518;1312;1016560;-64
2021/12/26 07:01:57;;;;;;;96.50;37.60;;;;;;;-10.91;71.64;100269.03;51513;1312;1016333;-64
2021/12/26 07:04:28;;;;;;;107.90;37.20;;;;;;;-10.95;71.72;100271.28;51371;1307;1016614;-63
2021/12/26 07:06:59;;;;;;;101.10;35.70;;;;;;;-10.99;71.76;100268.95;51399;1314;1016644;-63
2021/12/26 07:09:30;;;;;;;108.30;36.90;;;;;;;-10.98;71.79;100271.48;51326;1313;1017112;-63
2021/12/26 07:12:01;;;;;;;113.10;39.80;;;;;;;-11.01;71.77;100270.63;51414;1313;1016691;-63
2021/12/26 07:14:32;;;;;;;128.40;48.10;;;;;;;-11.01;72.03;100274.42;51327;1312;1016535;-63
2021/12/26 07:17:04;;;;;;;144.50;56.30;;;;;;;-11.00;72.14;100282.23;51424;1308;1018795;-63
2021/12/26 07:19:35;;;;;;;164.00;60.60;;;;;;;-10.99;72.10;100281.11;51439;1312;1017022;-63
2021/12/26 07:22:08;;;;;;;181.70;67.60;;;;;;;-11.00;72.14;100281.84;51385;1312;1018374;-63
2021/12/26 07:24:43;;;;;;;163.00;68.30;;;;;;;-11.00;72.12;100282.60;51509;1314;1018559;-63
2021/12/26 07:27:15;;;;;;;153.60;58.60;;;;;;;-11.02;72.16;100292.40;51413;1312;1016614;-63
2021/12/26 07:29:46;;;;;;;129.70;49.20;;;;;;;-11.05;72.54;100294.06;51373;1311;1017548;-63
2021/12/26 07:32:19;;;;;;;140.10;50.60;;;;;;;-11.03;72.58;100298.29;51419;1312;1016310;-63
2021/12/26 07:34:50;;;;;;;125.80;45.60;;;;;;;-10.98;72.65;100300.47;51370;1313;1016156;-63
2021/12/26 07:37:22;;;;;;;114.30;44.20;;;;;;;-10.98;72.53;100300.09;51393;1313;1016236;-63
2021/12/26 07:39:53;;;;;;;115.10;43.70;;;;;;;-10.95;72.50;100302.04;51432;1316;1016264;-63
2021/12/26 07:42:24;;;;;;;132.90;50.10;;;;;;;-10.93;72.69;100305.58;51371;1312;1016296;-63
2021/12/26 07:44:56;;;;;;;128.80;47.70;;;;;;;-10.91;72.51;100313.17;51448;1313;1016167;-63
2021/12/26 07:47:27;;;;;;;175.80;62.80;;;;;;;-10.90;72.68;100311.58;51332;1314;1016181;-63
2021/12/26 07:49:59;;;;;;;160.90;64.60;;;;;;;-10.85;72.69;100310.52;51360;1313;1015869;-63
2021/12/26 07:52:34;;;;;;;174.40;70.90;;;;;;;-10.80;72.74;100308.94;51380;1313;1016408;-63
2021/12/26 07:55:10;;;;;;;162.60;70.20;;;;;;;-10.75;72.78;100306.84;51373;1316;1016528;-63
2021/12/26 07:57:47;;;;;;;135.40;58.70;;;;;;;-10.73;73.06;100304.98;51431;1314;1017412;-63
2021/12/26 08:00:21;;;;;;;152.60;58.70;;;;;;;-10.72;73.30;100305.63;51341;1313;1016363;-63
2021/12/26 08:02:54;;;;;;;150.10;59.20;;;;;;;-10.73;73.31;100305.45;51402;1312;1016532;-63
2021/12/26 08:05:26;;;;;;;137.90;55.20;;;;;;;-10.73;73.43;100304.59;51397;1312;1015872;-63
2021/12/26 08:07:58;;;;;;;141.10;52.40;;;;;;;-10.70;73.62;100303.91;51364;1312;1016681;-63
2021/12/26 08:10:29;;;;;;;202.80;74.30;;;;;;;-10.67;73.70;100302.70;51398;1306;1016438;-63
2021/12/26 08:13:01;;;;;;;317.30;109.10;;;;;;;-10.65;73.93;100304.11;51499;1313;1016720;-63
2021/12/26 08:15:32;;;;;;;217.40;77.80;;;;;;;-10.60;74.37;100311.56;51354;1312;1016706;-63
2021/12/26 08:18:03;;;;;;;183.50;69.00;;;;;;;-10.56;74.69;100306.69;51303;1312;1016340;-63
2021/12/26 08:20:35;;;;;;;166.60;66.70;;;;;;;-10.51;74.74;100304.02;51403;1306;1020379;-62
2021/12/26 08:23:06;;;;;;;142.40;55.30;;;;;;;-10.46;74.91;100301.48;51364;1312;1016439;-62
2021/12/26 08:25:37;;;;;;;152.70;53.50;;;;;;;-10.41;75.00;100300.23;51521;1311;1016288;-62
2021/12/26 08:28:08;;;;;;;149.50;58.30;;;;;;;-10.36;75.11;100297.63;51441;1312;1018408;-62
2021/12/26 08:30:41;;;;;;;146.50;57.40;;;;;;;-10.31;75.17;100295.02;51424;1316;1016443;-62
2021/12/26 08:33:12;;;;;;;148.00;61.10;;;;;;;-10.26;75.17;100294.09;51330;1313;1016164;-62
2021/12/26 08:35:46;;;;;;;159.30;57.00;;;;;;;-10.21;75.19;100291.48;51379;1313;1016033;-63
2021/12/26 08:38:21;;;;;;;176.60;68.10;;;;;;;-10.14;75.23;100291.35;51417;1312;1016573;-63
2021/12/26 08:40:54;;;;;;;185.80;70.70;;;;;;;-10.08;75.30;100290.66;51379;1313;1016316;-63
2021/12/26 08:43:26;;;;;;;177.20;67.80;;;;;;;-10.03;75.54;100293.21;51469;1309;1017891;-63
2021/12/26 08:45:58;;;;;;;148.80;56.80;;;;;;;-9.97;75.76;100289.45;51413;1310;1016267;-63
2021/12/26 08:48:30;;;;;;;156.60;56.40;;;;;;;-9.88;76.12;100296.42;51478;1312;1016537;-63
2021/12/26 08:51:01;;;;;;;151.90;55.80;;;;;;;-9.81;76.22;100292.46;51415;1313;1019019;-63
2021/12/26 08:53:33;;;;;;;140.80;54.30;;;;;;;-9.73;76.25;100286.52;51456;1313;1016333;-63
2021/12/26 08:56:06;;;;;;;142.80;53.40;;;;;;;-9.66;76.32;100288.95;51425;1309;1016690;-63
2021/12/26 08:58:38;;;;;;;139.00;55.00;;;;;;;-9.59;76.47;100285.67;51390;1311;1016333;-63
2021/12/26 09:01:10;;;;;;;153.70;58.80;;;;;;;-9.51;76.48;100283.05;51435;1313;1015942;-63
2021/12/26 09:03:43;;;;;;;147.30;61.90;;;;;;;-9.44;76.42;100284.24;51382;1313;1016273;-63
2021/12/26 09:06:15;;;;;;;150.20;59.50;;;;;;;-9.38;76.70;100287.37;51461;1310;1016507;-62
2021/12/26 09:08:47;;;;;;;168.40;65.50;;;;;;;-9.30;76.98;100289.89;51372;1313;1016672;-63
2021/12/26 09:11:18;;;;;;;161.30;62.00;;;;;;;-9.22;76.95;100294.59;51441;1309;1016006;-63
2021/12/26 09:13:49;;;;;;;143.90;56.40;;;;;;;-9.15;76.79;100298.02;51378;1312;1018545;-62
2021/12/26 09:16:20;;;;;;;150.60;57.20;;;;;;;-9.09;76.78;100295.70;51401;1311;1016372;-63
2021/12/26 09:18:52;;;;;;;162.10;66.30;;;;;;;-9.04;76.85;100301.69;51323;1313;1016583;-62
2021/12/26 09:21:23;;;;;;;170.30;67.50;;;;;;;-9.00;76.99;100306.21;51412;1312;1016672;-62
2021/12/26 09:23:54;;;;;;;161.60;63.90;;;;;;;-8.94;77.12;100312.61;51413;1312;1016474;-62
2021/12/26 09:26:26;;;;;;;159.40;62.60;;;;;;;-8.87;77.12;100313.20;51464;1313;1016503;-62
2021/12/26 09:28:58;;;;;;;157.90;61.30;;;;;;;-8.81;77.27;100312.98;51373;1309;1015955;-62
2021/12/26 09:31:29;;;;;;;154.50;59.30;;;;;;;-8.75;77.26;100316.07;51366;1312;1016664;-63
2021/12/26 09:34:00;;;;;;;147.50;59.70;;;;;;;-8.68;77.47;100315.14;51380;1313;1016370;-63
2021/12/26 09:36:32;;;;;;;146.00;57.30;;;;;;;-8.61;77.78;100311.17;51524;1313;1016649;-63
2021/12/26 09:39:05;;;;;;;128.80;51.90;;;;;;;-8.54;77.89;100309.86;51413;1309;1016464;-63
2021/12/26 09:41:36;;;;;;;134.90;53.10;;;;;;;-8.46;78.02;100308.20;51658;1313;1016100;-63
2021/12/26 09:44:07;;;;;;;135.10;49.30;;;;;;;-8.36;78.21;100308.27;51580;1313;1016361;-63
2021/12/26 09:46:39;;;;;;;118.60;50.90;;;;;;;-8.28;78.15;100305.75;51494;1309;1017142;-62
2021/12/26 09:49:11;;;;;;;119.70;48.00;;;;;;;-8.19;78.26;100307.33;51287;1313;1017082;-63
2021/12/26 09:51:42;;;;;;;120.50;50.60;;;;;;;-8.12;78.40;100309.58;51390;1313;1015991;-63
2021/12/26 09:54:14;;;;;;;126.60;51.20;;;;;;;-8.03;78.52;100303.81;51386;1314;1016365;-63
2021/12/26 09:56:46;;;;;;;129.30;50.70;;;;;;;-7.96;78.39;100304.67;51570;1313;1016639;-63
2021/12/26 09:59:20;;;;;;;141.60;55.50;;;;;;;-7.89;78.47;100308.39;51464;1313;1016534;-63
2021/12/26 10:01:54;;;;;;;160.10;59.40;;;;;;;-7.82;78.54;100306.77;51476;1307;1018853;-63
2021/12/26 10:04:27;;;;;;;144.60;58.10;;;;;;;-7.75;78.51;100305.21;51428;1310;1020031;-63
2021/12/26 10:07:03;;;;;;;137.50;51.80;;;;;;;-7.67;78.79;100304.68;51456;1313;1016267;-62
2021/12/26 10:09:36;;;;;;;119.20;51.00;;;;;;;-7.60;78.71;100300.33;51545;1313;1018903;-62
2021/12/26 10:12:13;;;;;;;135.40;52.40;;;;;;;-7.54;78.88;100299.14;51516;1311;1016316;-63
2021/12/26 10:14:48;;;;;;;123.90;50.10;;;;;;;-7.45;78.94;100292.82;51511;1313;1015905;-62
2021/12/26 10:17:26;;;;;;;128.50;51.80;;;;;;;-7.39;78.94;100289.52;51501;1309;1017240;-62
2021/12/26 10:20:07;;;;;;;125.60;52.30;;;;;;;-7.32;79.13;100285.10;51464;1312;1016623;-63
2021/12/26 10:22:39;;;;;;;113.40;46.70;;;;;;;-7.23;78.93;100283.47;51633;1311;1016369;-63
2021/12/26 10:25:16;;;;;;;104.10;46.30;;;;;;;-7.16;79.14;100282.37;51643;1313;1016329;-63
2021/12/26 10:27:49;;;;;;;114.80;50.80;;;;;;;-7.08;79.25;100283.75;51407;1313;1018257;-63
2021/12/26 10:30:24;;;;;;;120.20;52.10;;;;;;;-7.00;79.48;100284.30;51497;1312;1016064;-63
2021/12/26 10:33:00;;;;;;;120.40;51.00;;;;;;;-6.91;79.38;100281.29;51445;1309;1016283;-63
2021/12/26 10:35:31;;;;;;;111.20;48.50;;;;;;;-6.83;79.47;100280.18;51545;1308;1016100;-63
2021/12/26 10:38:03;;;;;;;115.70;45.80;;;;;;;-6.76;79.43;100282.24;51513;1313;1016621;-62
2021/12/26 10:40:38;;;;;;;103.20;40.50;;;;;;;-6.68;79.36;100285.64;51591;1312;1017241;-62
2021/12/26 10:43:12;;;;;;;87.80;35.10;;;;;;;-6.61;79.20;100285.75;51551;1314;1016152;-62
2021/12/26 10:45:44;;;;;;;89.80;37.30;;;;;;;-6.56;79.17;100288.08;51502;1313;1016295;-63
2021/12/26 10:48:24;;;;;;;98.70;36.00;;;;;;;-6.50;79.05;100292.51;51504;1313;1016638;-62
2021/12/26 10:50:57;;;;;;;97.00;36.30;;;;;;;-6.46;78.94;100291.89;51470;1307;1016459;-62
2021/12/26 10:53:28;;;;;;;103.00;39.40;;;;;;;-6.41;78.77;100287.25;51497;1309;1018817;-63
2021/12/26 10:56:13;;;;;;;98.60;39.30;;;;;;;-6.37;78.62;100289.08;51559;1307;1017955;-62
2021/12/26 10:58:44;;;;;;;84.90;31.30;;;;;;;-6.32;78.72;100289.94;51582;1312;1016394;-62
2021/12/26 11:01:16;;;;;;;72.00;30.40;;;;;;;-6.26;78.82;100292.51;51410;1313;1016157;-62
2021/12/26 11:03:48;;;;;;;93.20;32.30;;;;;;;-6.23;78.73;100291.87;51444;1313;1015784;-62
2021/12/26 11:06:23;;;;;;;82.00;32.10;;;;;;;-6.18;78.69;100289.36;51506;1312;1016188;-62
2021/12/26 11:08:54;;;;;;;94.20;34.70;;;;;;;-6.15;78.76;100286.00;51353;1307;1016316;-62